Time,TemperatureF,DewpointF,PressureIn,WindDirection,WindDirectionDegrees,WindSpeedMPH,WindSpeedGustMPH,Humidity,HourlyPrecipIn,Conditions,Clouds,dailyrainin,SoftwareType,DateUTC
2013-04-21 00:01:00,46.4,42.1,30.25,SSW,195,0.0,0.0,85,0.00,CLR,,0.07,WeatherDisplay:10.37,2013-04-21 04:01:00,
2013-04-21 00:06:00,46.3,41.7,30.25,SSW,195,0.0,0.0,84,0.00,RA,,0.00,WeatherDisplay:10.37,2013-04-21 04:06:00,
2013-04-21 00:11:00,46.1,41.5,30.25,SSW,195,0.0,0.0,84,0.00,RA,,0.00,WeatherDisplay:10.37,2013-04-21 04:11:00,
2013-04-21 00:16:00,45.9,41.6,30.25,SSW,196,0.0,0.0,85,0.00,CLR,,0.00,WeatherDisplay:10.37,2013-04-21 04:16:00,
2013-04-21 00:21:00,45.7,41.4,30.25,SSW,195,0.0,0.0,85,0.00,CLR,,0.00,WeatherDisplay:10.37,2013-04-21 04:21:00,
2013-04-21 00:26:00,45.6,41.7,30.25,SSW,195,0.0,0.0,86,0.00,CLR,,0.00,WeatherDisplay:10.37,2013-04-21 04:26:00,
2013-04-21 00:31:00,45.6,42.0,30.25,SSW,195,0.0,0.0,87,0.00,CLR,,0.00,WeatherDisplay:10.37,2013-04-21 04:31:00,
2013-04-21 00:36:00,45.7,42.1,30.25,SSW,195,0.0,0.0,87,0.00,CLR,,0.00,WeatherDisplay:10.37,2013-04-21 04:36:00,
2013-04-21 00:41:00,45.6,41.7,30.25,SSW,196,0.0,0.0,86,0.00,CLR,,0.00,WeatherDisplay:10.37,2013-04-21 04:41:00,
2013-04-21 00:46:00,45.5,41.9,30.26,SSW,196,0.0,0.0,87,0.00,CLR,,0.00,WeatherDisplay:10.37,2013-04-21 04:46:00,
2013-04-21 00:51:00,45.5,41.9,30.25,SSW,196,0.0,0.0,87,0.00,CLR,,0.00,WeatherDisplay:10.37,2013-04-21 04:51:00,
2013-04-21 00:56:00,45.3,41.7,30.25,SSW,196,0.0,0.0,87,0.00,CLR,,0.00,WeatherDisplay:10.37,2013-04-21 04:56:00,
2013-04-21 01:01:00,45.1,41.5,30.25,SSW,196,0.0,0.0,87,0.00,CLR,,0.00,WeatherDisplay:10.37,2013-04-21 05:01:00,
2013-04-21 01:06:00,44.9,41.3,30.25,SSW,196,0.0,0.0,87,0.00,CLR,,0.00,WeatherDisplay:10.37,2013-04-21 05:06:00,
2013-04-21 01:11:00,44.8,41.8,30.25,SSW,196,0.0,0.0,89,0.00,CLR,,0.00,WeatherDisplay:10.37,2013-04-21 05:11:00,
2013-04-21 01:16:00,45.0,42.0,30.26,SSW,196,0.0,0.0,89,0.00,CLR,,0.00,WeatherDisplay:10.37,2013-04-21 05:16:00,
2013-04-21 01:21:00,45.0,42.0,30.26,SSW,196,0.0,0.0,89,0.00,CLR,,0.00,WeatherDisplay:10.37,2013-04-21 05:21:00,
2013-04-21 01:26:00,44.8,41.8,30.25,SSW,196,0.0,0.0,89,0.00,CLR,,0.00,WeatherDisplay:10.37,2013-04-21 05:26:00,
2013-04-21 01:31:00,44.7,41.7,30.26,SSW,196,0.0,0.0,89,0.00,CLR,,0.00,WeatherDisplay:10.37,2013-04-21 05:31:00,
2013-04-21 01:36:00,44.6,41.8,30.26,SSW,195,0.0,0.0,90,0.00,CLR,,0.00,WeatherDisplay:10.37,2013-04-21 05:36:00,
2013-04-21 01:41:00,44.5,41.7,30.26,SSW,196,0.0,0.0,90,0.00,CLR,,0.00,WeatherDisplay:10.37,2013-04-21 05:41:00,
2013-04-21 01:46:00,44.5,42.0,30.26,SSW,195,0.0,0.0,91,0.00,CLR,,0.00,WeatherDisplay:10.37,2013-04-21 05:46:00,
2013-04-21 01:51:00,44.6,42.1,30.26,SSW,195,0.0,0.0,91,0.00,CLR,,0.00,WeatherDisplay:10.37,2013-04-21 05:51:00,
2013-04-21 01:56:00,44.7,42.2,30.26,SW,216,0.0,0.0,91,0.00,CLR,,0.00,WeatherDisplay:10.37,2013-04-21 05:56:00,
2013-04-21 02:01:00,44.8,42.3,30.27,West,270,0.0,0.0,91,0.00,CLR,,0.00,WeatherDisplay:10.37,2013-04-21 06:01:00,
2013-04-21 02:06:00,44.9,42.1,30.27,West,270,0.0,0.0,90,0.00,CLR,,0.00,WeatherDisplay:10.37,2013-04-21 06:06:00,
2013-04-21 02:11:00,44.9,42.4,30.27,West,270,0.0,0.0,91,0.00,CLR,,0.00,WeatherDisplay:10.37,2013-04-21 06:11:00,
2013-04-21 02:16:00,44.9,42.4,30.27,West,277,0.0,0.0,91,0.00,CLR,,0.00,WeatherDisplay:10.37,2013-04-21 06:16:00,
2013-04-21 02:21:00,44.9,42.4,30.27,WNW,284,0.0,0.0,91,0.00,CLR,,0.00,WeatherDisplay:10.37,2013-04-21 06:21:00,
2013-04-21 02:26:00,44.9,42.4,30.27,North,5,1.1,1.1,91,0.00,CLR,,0.00,WeatherDisplay:10.37,2013-04-21 06:26:00,
2013-04-21 02:31:00,44.9,42.4,30.27,North,355,1.1,0.0,91,0.00,CLR,,0.00,WeatherDisplay:10.37,2013-04-21 06:31:00,
2013-04-21 02:36:00,44.8,42.0,30.27,NNW,347,0.0,0.0,90,0.00,CLR,,0.00,WeatherDisplay:10.37,2013-04-21 06:36:00,
2013-04-21 02:41:00,44.7,41.9,30.27,NNW,346,0.0,0.0,90,0.00,CLR,,0.00,WeatherDisplay:10.37,2013-04-21 06:41:00,
2013-04-21 02:46:00,44.5,42.0,30.27,NNW,346,0.0,0.0,91,0.00,CLR,,0.00,WeatherDisplay:10.37,2013-04-21 06:46:00,
2013-04-21 02:51:00,44.5,42.0,30.27,NNW,345,0.0,0.0,91,0.00,CLR,,0.00,WeatherDisplay:10.37,2013-04-21 06:51:00,
2013-04-21 02:56:00,44.4,41.9,30.27,NNW,346,0.0,0.0,91,0.00,CLR,,0.00,WeatherDisplay:10.37,2013-04-21 06:56:00,
2013-04-21 03:01:00,44.3,41.8,30.27,NNW,345,0.0,0.0,91,0.00,CLR,,0.00,WeatherDisplay:10.37,2013-04-21 07:01:00,
2013-04-21 03:06:00,44.2,41.7,30.27,NNW,346,0.0,0.0,91,0.00,CLR,,0.00,WeatherDisplay:10.37,2013-04-21 07:06:00,
2013-04-21 03:11:00,44.0,41.5,30.28,NNW,346,0.0,0.0,91,0.00,CLR,,0.00,WeatherDisplay:10.37,2013-04-21 07:11:00,
2013-04-21 03:16:00,44.0,41.5,30.27,NNW,340,0.0,0.0,91,0.00,CLR,,0.00,WeatherDisplay:10.37,2013-04-21 07:16:00,
2013-04-21 03:21:00,43.9,41.7,30.28,NNW,340,0.0,0.0,92,0.00,CLR,,0.00,WeatherDisplay:10.37,2013-04-21 07:21:00,
2013-04-21 03:26:00,44.0,41.8,30.28,NNW,328,1.1,0.0,92,0.00,CLR,,0.00,WeatherDisplay:10.37,2013-04-21 07:26:00,
2013-04-21 03:31:00,43.9,41.7,30.28,NW,322,0.0,0.0,92,0.00,CLR,,0.00,WeatherDisplay:10.37,2013-04-21 07:31:00,
2013-04-21 03:36:00,43.9,41.7,30.28,NW,322,0.0,0.0,92,0.00,CLR,,0.00,WeatherDisplay:10.37,2013-04-21 07:36:00,
2013-04-21 03:41:00,43.9,42.0,30.28,West,267,0.0,0.0,93,0.00,CLR,,0.00,WeatherDisplay:10.37,2013-04-21 07:41:00,
2013-04-21 03:46:00,44.1,42.2,30.29,NW,305,0.0,0.0,93,0.00,CLR,,0.00,WeatherDisplay:10.37,2013-04-21 07:46:00,
2013-04-21 03:51:00,44.3,42.4,30.29,West,281,1.1,1.1,93,0.00,CLR,,0.00,WeatherDisplay:10.37,2013-04-21 07:51:00,
2013-04-21 03:56:00,44.4,42.2,30.29,WNW,285,0.0,0.0,92,0.00,CLR,,0.00,WeatherDisplay:10.37,2013-04-21 07:56:00,
2013-04-21 04:01:00,44.5,42.3,30.29,North,355,1.1,0.0,92,0.00,CLR,,0.00,WeatherDisplay:10.37,2013-04-21 08:01:00,
2013-04-21 04:06:00,44.5,42.0,30.29,NW,312,0.0,0.0,91,0.00,CLR,,0.00,WeatherDisplay:10.37,2013-04-21 08:06:00,
2013-04-21 04:11:00,44.4,41.9,30.29,NW,314,0.0,0.0,91,0.00,CLR,,0.00,WeatherDisplay:10.37,2013-04-21 08:11:00,
2013-04-21 04:16:00,44.3,41.3,30.29,NW,323,0.0,0.0,89,0.00,CLR,,0.00,WeatherDisplay:10.37,2013-04-21 08:16:00,
2013-04-21 04:21:00,44.2,40.9,30.30,NW,323,0.0,0.0,88,0.00,CLR,,0.00,WeatherDisplay:10.37,2013-04-21 08:21:00,
2013-04-21 04:26:00,44.1,40.8,30.30,NW,323,0.0,0.0,88,0.00,CLR,,0.00,WeatherDisplay:10.37,2013-04-21 08:26:00,
2013-04-21 04:31:00,44.0,40.7,30.30,NW,323,0.0,0.0,88,0.00,CLR,,0.00,WeatherDisplay:10.37,2013-04-21 08:31:00,
2013-04-21 04:36:00,44.0,40.7,30.30,NW,323,0.0,0.0,88,0.00,CLR,,0.00,WeatherDisplay:10.37,2013-04-21 08:36:00,
2013-04-21 04:41:00,44.0,40.7,30.30,North,11,0.0,0.0,88,0.00,CLR,,0.00,WeatherDisplay:10.37,2013-04-21 08:41:00,
2013-04-21 04:46:00,43.9,40.3,30.30,North,11,1.1,1.1,87,0.00,CLR,,0.00,WeatherDisplay:10.37,2013-04-21 08:46:00,
2013-04-21 04:51:00,43.9,40.0,30.31,North,11,1.1,0.0,86,0.00,CLR,,0.00,WeatherDisplay:10.37,2013-04-21 08:51:00,
2013-04-21 04:56:00,43.9,39.7,30.31,NNE,12,2.0,2.0,85,0.00,CLR,,0.00,WeatherDisplay:10.37,2013-04-21 08:56:00,
2013-04-21 05:01:00,43.9,39.7,30.31,NNE,19,1.1,1.1,85,0.00,CLR,,0.00,WeatherDisplay:10.37,2013-04-21 09:01:00,
2013-04-21 05:06:00,43.8,39.3,30.31,NNE,19,1.1,0.0,84,0.00,CLR,,0.00,WeatherDisplay:10.37,2013-04-21 09:06:00,
2013-04-21 05:11:00,43.7,39.2,30.32,NNE,27,1.1,1.1,84,0.00,CLR,,0.00,WeatherDisplay:10.37,2013-04-21 09:11:00,
2013-04-21 05:16:00,43.6,38.8,30.32,NNE,13,1.1,1.1,83,0.00,CLR,,0.00,WeatherDisplay:10.37,2013-04-21 09:16:00,
2013-04-21 05:21:00,43.6,38.8,30.32,North,4,2.3,2.3,83,0.00,CLR,,0.00,WeatherDisplay:10.37,2013-04-21 09:21:00,
2013-04-21 05:26:00,43.5,38.7,30.32,NNE,16,1.1,1.1,83,0.00,CLR,,0.00,WeatherDisplay:10.37,2013-04-21 09:26:00,
2013-04-21 05:31:00,43.3,38.5,30.32,North,4,2.3,2.3,83,0.00,CLR,,0.00,WeatherDisplay:10.37,2013-04-21 09:31:00,
2013-04-21 05:36:00,43.2,38.7,30.33,NNE,26,1.1,1.1,84,0.00,CLR,,0.00,WeatherDisplay:10.37,2013-04-21 09:36:00,
2013-04-21 05:41:00,43.2,38.7,30.33,North,1,2.3,2.3,84,0.00,CLR,,0.00,WeatherDisplay:10.37,2013-04-21 09:41:00,
2013-04-21 05:46:00,43.1,38.6,30.33,NNE,16,2.0,2.0,84,0.00,CLR,,0.00,WeatherDisplay:10.37,2013-04-21 09:46:00,
2013-04-21 05:51:00,43.0,38.5,30.33,North,352,2.3,2.3,84,0.00,CLR,,0.00,WeatherDisplay:10.37,2013-04-21 09:51:00,
2013-04-21 05:56:00,43.0,38.5,30.33,North,350,2.3,2.3,84,0.00,CLR,,0.00,WeatherDisplay:10.37,2013-04-21 09:56:00,
2013-04-21 06:01:00,43.0,38.5,30.34,North,8,2.0,2.0,84,0.00,CLR,,0.00,WeatherDisplay:10.37,2013-04-21 10:01:00,
2013-04-21 06:06:00,43.0,38.2,30.34,SSE,154,2.3,2.3,83,0.00,CLR,,0.00,WeatherDisplay:10.37,2013-04-21 10:06:00,
2013-04-21 06:11:00,43.0,38.2,30.34,North,9,2.3,2.3,83,0.00,CLR,,0.00,WeatherDisplay:10.37,2013-04-21 10:11:00,
2013-04-21 06:16:00,43.1,38.3,30.35,NNE,25,2.3,2.3,83,0.00,CLR,,0.00,WeatherDisplay:10.37,2013-04-21 10:16:00,
2013-04-21 06:21:00,43.1,38.3,30.35,NNE,18,3.0,3.0,83,0.00,CLR,,0.00,WeatherDisplay:10.37,2013-04-21 10:21:00,
2013-04-21 06:26:00,43.2,38.1,30.36,NNE,33,2.0,2.0,82,0.00,CLR,,0.00,WeatherDisplay:10.37,2013-04-21 10:26:00,
2013-04-21 06:31:00,43.2,38.1,30.36,North,6,1.1,1.1,82,0.00,CLR,,0.00,WeatherDisplay:10.37,2013-04-21 10:31:00,
2013-04-21 06:36:00,43.3,38.2,30.36,North,358,3.5,3.5,82,0.00,CLR,,0.00,WeatherDisplay:10.37,2013-04-21 10:36:00,
2013-04-21 06:41:00,43.4,38.3,30.37,NNE,13,4.0,4.0,82,0.00,CLR,,0.00,WeatherDisplay:10.37,2013-04-21 10:41:00,
2013-04-21 06:46:00,43.4,38.0,30.37,North,8,3.5,3.5,81,0.00,CLR,,0.00,WeatherDisplay:10.37,2013-04-21 10:46:00,
2013-04-21 06:51:00,43.5,38.1,30.37,NE,37,4.0,4.0,81,0.00,CLR,,0.00,WeatherDisplay:10.37,2013-04-21 10:51:00,
2013-04-21 06:56:00,43.5,38.1,30.37,NNE,19,3.5,3.5,81,0.00,CLR,,0.00,WeatherDisplay:10.37,2013-04-21 10:56:00,
2013-04-21 07:01:00,43.6,37.8,30.38,NE,37,4.6,4.6,80,0.00,CLR,,0.00,WeatherDisplay:10.37,2013-04-21 11:01:00,
2013-04-21 07:06:00,43.7,37.9,30.38,NW,325,3.5,3.5,80,0.00,CLR,,0.00,WeatherDisplay:10.37,2013-04-21 11:06:00,
2013-04-21 07:11:00,43.9,37.8,30.39,North,4,4.6,4.6,79,0.00,CLR,,0.00,WeatherDisplay:10.37,2013-04-21 11:11:00,
2013-04-21 07:16:00,43.9,37.8,30.39,East,91,2.3,2.3,79,0.00,CLR,,0.00,WeatherDisplay:10.37,2013-04-21 11:16:00,
2013-04-21 07:21:00,44.1,38.0,30.39,North,356,4.0,4.0,79,0.00,CLR,,0.00,WeatherDisplay:10.37,2013-04-21 11:21:00,
2013-04-21 07:26:00,44.3,37.9,30.39,North,8,2.3,2.3,78,0.00,CLR,,0.00,WeatherDisplay:10.37,2013-04-21 11:26:00,
2013-04-21 07:31:00,44.4,38.3,30.39,NE,41,2.3,2.3,79,0.00,CLR,,0.00,WeatherDisplay:10.37,2013-04-21 11:31:00,
2013-04-21 07:36:00,44.7,37.9,30.40,ESE,110,5.8,5.8,77,0.00,CLR,,0.00,WeatherDisplay:10.37,2013-04-21 11:36:00,
2013-04-21 07:41:00,45.0,38.2,30.40,ENE,77,5.8,5.8,77,0.00,CLR,,0.00,WeatherDisplay:10.37,2013-04-21 11:41:00,
2013-04-21 07:46:00,45.2,38.1,30.40,NNE,20,3.5,3.5,76,0.00,CLR,,0.00,WeatherDisplay:10.37,2013-04-21 11:46:00,
2013-04-21 07:51:00,45.4,38.3,30.41,North,11,3.0,3.0,76,0.00,CLR,,0.00,WeatherDisplay:10.37,2013-04-21 11:51:00,
2013-04-21 07:56:00,45.5,38.4,30.42,NE,37,3.5,3.5,76,0.00,CLR,,0.00,WeatherDisplay:10.37,2013-04-21 11:56:00,
2013-04-21 08:01:00,45.8,38.7,30.42,ESE,117,4.0,4.0,76,0.00,CLR,,0.00,WeatherDisplay:10.37,2013-04-21 12:01:00,
2013-04-21 08:06:00,46.1,38.6,30.42,North,8,3.5,3.5,75,0.00,CLR,,0.00,WeatherDisplay:10.37,2013-04-21 12:06:00,
2013-04-21 08:11:00,46.4,38.6,30.42,SSW,211,3.5,3.5,74,0.00,CLR,,0.00,WeatherDisplay:10.37,2013-04-21 12:11:00,
2013-04-21 08:16:00,46.9,38.7,30.42,North,1,3.5,3.5,73,0.00,CLR,,0.00,WeatherDisplay:10.37,2013-04-21 12:16:00,
2013-04-21 08:21:00,47.6,39.0,30.42,ENE,63,1.0,1.0,72,0.00,CLR,,0.00,WeatherDisplay:10.37,2013-04-21 12:21:00,
2013-04-21 08:26:00,48.1,38.8,30.43,NE,44,8.1,8.1,70,0.00,CLR,,0.00,WeatherDisplay:10.37,2013-04-21 12:26:00,
2013-04-21 08:31:00,48.4,38.7,30.43,NNE,16,2.3,2.3,69,0.00,CLR,,0.00,WeatherDisplay:10.37,2013-04-21 12:31:00,
2013-04-21 08:36:00,48.6,38.5,30.43,ENE,64,10.4,10.4,68,0.00,CLR,,0.00,WeatherDisplay:10.37,2013-04-21 12:36:00,
2013-04-21 08:41:00,49.2,39.1,30.43,NNW,345,3.5,3.5,68,0.00,CLR,,0.00,WeatherDisplay:10.37,2013-04-21 12:41:00,
2013-04-21 08:47:00,49.7,39.2,30.43,ENE,75,3.5,3.5,67,0.00,CLR,,0.00,WeatherDisplay:10.37,2013-04-21 12:47:00,
2013-04-21 08:52:00,50.1,39.2,30.43,NE,36,4.0,4.0,66,0.00,CLR,,0.00,WeatherDisplay:10.37,2013-04-21 12:52:00,
2013-04-21 08:57:00,50.5,39.2,30.43,NNE,32,2.3,2.3,65,0.00,CLR,,0.00,WeatherDisplay:10.37,2013-04-21 12:57:00,
2013-04-21 09:02:00,50.9,38.7,30.44,NNE,25,5.8,5.8,63,0.00,CLR,,0.00,WeatherDisplay:10.37,2013-04-21 13:02:00,
2013-04-21 09:07:00,50.8,39.1,30.44,NNW,342,3.5,3.5,64,0.00,CLR,,0.00,WeatherDisplay:10.37,2013-04-21 13:07:00,
2013-04-21 09:12:00,51.0,38.8,30.44,East,81,4.6,4.6,63,0.00,CLR,,0.00,WeatherDisplay:10.37,2013-04-21 13:12:00,
2013-04-21 09:17:00,51.6,39.4,30.44,North,5,7.0,7.0,63,0.00,CLR,,0.00,WeatherDisplay:10.37,2013-04-21 13:17:00,
2013-04-21 09:22:00,51.3,38.3,30.44,East,87,8.1,8.1,61,0.00,CLR,,0.00,WeatherDisplay:10.37,2013-04-21 13:22:00,
2013-04-21 09:27:00,51.6,39.4,30.44,ENE,64,2.0,2.0,63,0.00,CLR,,0.00,WeatherDisplay:10.37,2013-04-21 13:27:00,
2013-04-21 09:32:00,52.2,39.6,30.44,North,5,3.5,3.5,62,0.00,CLR,,0.00,WeatherDisplay:10.37,2013-04-21 13:32:00,
2013-04-21 09:37:00,52.6,39.1,30.45,ESE,110,6.9,6.9,60,0.00,CLR,,0.00,WeatherDisplay:10.37,2013-04-21 13:37:00,
2013-04-21 09:42:00,52.7,38.8,30.45,North,4,6.0,6.0,59,0.00,CLR,,0.00,WeatherDisplay:10.37,2013-04-21 13:42:00,
2013-04-21 09:47:00,52.9,38.5,30.45,NE,40,9.2,9.2,58,0.00,CLR,,0.00,WeatherDisplay:10.37,2013-04-21 13:47:00,
2013-04-21 09:52:00,53.0,38.2,30.45,NNE,30,5.8,5.8,57,0.00,CLR,,0.00,WeatherDisplay:10.37,2013-04-21 13:52:00,
2013-04-21 09:57:00,53.2,38.8,30.45,WNW,284,3.5,3.5,58,0.00,CLR,,0.00,WeatherDisplay:10.37,2013-04-21 13:57:00,
2013-04-21 10:02:00,54.1,40.1,30.45,ENE,70,3.5,3.5,59,0.00,CLR,,0.00,WeatherDisplay:10.37,2013-04-21 14:02:00,
2013-04-21 10:07:00,54.3,38.5,30.46,ENE,67,6.9,6.9,55,0.00,CLR,,0.00,WeatherDisplay:10.37,2013-04-21 14:07:00,
2013-04-21 10:12:00,54.4,39.5,30.46,East,92,4.6,4.6,57,0.00,CLR,,0.00,WeatherDisplay:10.37,2013-04-21 14:12:00,
2013-04-21 10:17:00,54.8,39.4,30.46,ENE,57,2.3,2.3,56,0.00,CLR,,0.00,WeatherDisplay:10.37,2013-04-21 14:17:00,
2013-04-21 10:22:00,55.3,38.9,30.46,NNE,21,6.9,6.9,54,0.00,CLR,,0.00,WeatherDisplay:10.37,2013-04-21 14:22:00,
2013-04-21 10:27:00,55.4,40.0,30.46,NNE,18,5.0,5.0,56,0.00,CLR,,0.00,WeatherDisplay:10.37,2013-04-21 14:27:00,
2013-04-21 10:32:00,55.1,39.2,30.46,East,91,4.6,4.6,55,0.00,CLR,,0.00,WeatherDisplay:10.37,2013-04-21 14:32:00,
2013-04-21 10:37:00,54.6,39.7,30.46,NNW,336,4.0,4.0,57,0.00,CLR,,0.00,WeatherDisplay:10.37,2013-04-21 14:37:00,
2013-04-21 10:42:00,55.1,40.1,30.46,NNW,348,3.5,3.5,57,0.00,CLR,,0.00,WeatherDisplay:10.37,2013-04-21 14:42:00,
2013-04-21 10:47:00,56.3,41.3,30.47,ESE,103,6.0,6.0,57,0.00,CLR,,0.00,WeatherDisplay:10.37,2013-04-21 14:47:00,
2013-04-21 10:52:00,55.8,38.9,30.47,ESE,110,4.6,4.6,53,0.00,CLR,,0.00,WeatherDisplay:10.37,2013-04-21 14:52:00,
2013-04-21 10:57:00,55.9,40.0,30.47,NNE,18,3.5,3.5,55,0.00,CLR,,0.00,WeatherDisplay:10.37,2013-04-21 14:57:00,
2013-04-21 11:02:00,55.9,39.0,30.47,NNW,331,6.9,6.9,53,0.00,CLR,,0.00,WeatherDisplay:10.37,2013-04-21 15:02:00,
2013-04-21 11:07:00,56.1,39.2,30.47,NNW,342,3.5,3.5,53,0.00,CLR,,0.00,WeatherDisplay:10.37,2013-04-21 15:07:00,
2013-04-21 11:12:00,56.5,41.0,30.47,NE,39,1.1,1.1,56,0.00,CLR,,0.00,WeatherDisplay:10.37,2013-04-21 15:12:00,
2013-04-21 11:17:00,56.6,40.6,30.47,ENE,77,2.0,2.0,55,0.00,CLR,,0.00,WeatherDisplay:10.37,2013-04-21 15:17:00,
2013-04-21 11:22:00,56.9,40.9,30.47,WSW,255,3.5,3.5,55,0.00,CLR,,0.00,WeatherDisplay:10.37,2013-04-21 15:22:00,
2013-04-21 11:27:00,56.6,39.2,30.47,NNE,12,4.0,4.0,52,0.00,CLR,,0.00,WeatherDisplay:10.37,2013-04-21 15:27:00,
2013-04-21 11:32:00,56.8,40.8,30.47,NNW,335,3.5,3.5,55,0.00,CLR,,0.00,WeatherDisplay:10.37,2013-04-21 15:32:00,
2013-04-21 11:37:00,56.7,39.3,30.47,WNW,284,3.5,3.5,52,0.00,CLR,,0.00,WeatherDisplay:10.37,2013-04-21 15:37:00,
2013-04-21 11:42:00,57.0,41.0,30.47,ESE,102,5.0,5.0,55,0.00,CLR,,0.00,WeatherDisplay:10.37,2013-04-21 15:42:00,
2013-04-21 11:47:00,57.8,40.3,30.46,ENE,64,3.5,3.5,52,0.00,CLR,,0.00,WeatherDisplay:10.37,2013-04-21 15:47:00,
2013-04-21 11:52:00,57.6,39.1,30.46,East,97,3.5,3.5,50,0.00,CLR,,0.00,WeatherDisplay:10.37,2013-04-21 15:52:00,
2013-04-21 11:57:00,58.0,41.0,30.46,South,179,3.5,3.5,53,0.00,CLR,,0.00,WeatherDisplay:10.37,2013-04-21 15:57:00,
2013-04-21 12:02:00,58.1,39.5,30.46,NNE,20,4.6,4.6,50,0.00,CLR,,0.00,WeatherDisplay:10.37,2013-04-21 16:02:00,
2013-04-21 12:07:00,58.5,38.9,30.46,ESE,122,3.5,3.5,48,0.00,CLR,,0.00,WeatherDisplay:10.37,2013-04-21 16:07:00,
2013-04-21 12:12:00,58.7,40.6,30.46,ESE,103,3.5,3.5,51,0.00,CLR,,0.00,WeatherDisplay:10.37,2013-04-21 16:12:00,
2013-04-21 12:17:00,59.4,41.3,30.46,East,79,3.5,3.5,51,0.00,CLR,,0.00,WeatherDisplay:10.37,2013-04-21 16:17:00,
2013-04-21 12:22:00,59.7,41.0,30.46,North,359,4.6,4.6,50,0.00,CLR,,0.00,WeatherDisplay:10.37,2013-04-21 16:22:00,
2013-04-21 12:27:00,60.0,39.7,30.46,NNE,20,2.0,2.0,47,0.00,CLR,,0.00,WeatherDisplay:10.37,2013-04-21 16:27:00,
2013-04-21 12:32:00,59.3,38.5,30.45,NNE,26,5.8,5.8,46,0.00,CLR,,0.00,WeatherDisplay:10.37,2013-04-21 16:32:00,
2013-04-21 12:37:00,58.8,40.2,30.45,NNE,12,3.5,3.5,50,0.00,CLR,,0.00,WeatherDisplay:10.37,2013-04-21 16:37:00,
2013-04-21 12:42:00,59.2,39.5,30.45,NNE,16,5.0,5.0,48,0.00,CLR,,0.00,WeatherDisplay:10.37,2013-04-21 16:42:00,
2013-04-21 12:47:00,59.4,41.3,30.45,ESE,104,4.6,4.6,51,0.00,CLR,,0.00,WeatherDisplay:10.37,2013-04-21 16:47:00,
2013-04-21 12:52:00,59.3,38.5,30.45,NNE,27,6.9,6.9,46,0.00,CLR,,0.00,WeatherDisplay:10.37,2013-04-21 16:52:00,
2013-04-21 12:57:00,59.0,39.3,30.45,NE,35,2.0,2.0,48,0.00,CLR,,0.00,WeatherDisplay:10.37,2013-04-21 16:57:00,
2013-04-21 13:02:00,59.7,40.0,30.44,NNE,19,3.5,3.5,48,0.00,CLR,,0.00,WeatherDisplay:10.37,2013-04-21 17:02:00,
2013-04-21 13:07:00,59.6,39.3,30.45,NNE,16,6.9,6.9,47,0.00,CLR,,0.00,WeatherDisplay:10.37,2013-04-21 17:07:00,
2013-04-21 13:12:00,59.8,40.1,30.45,ENE,70,3.5,3.5,48,0.00,CLR,,0.00,WeatherDisplay:10.37,2013-04-21 17:12:00,
2013-04-21 13:17:00,60.3,41.0,30.45,NNE,13,3.5,3.5,49,0.00,CLR,,0.00,WeatherDisplay:10.37,2013-04-21 17:17:00,
2013-04-21 13:22:00,60.3,40.5,30.44,NW,311,2.3,2.3,48,0.00,CLR,,0.00,WeatherDisplay:10.37,2013-04-21 17:22:00,
2013-04-21 13:27:00,61.1,40.1,30.44,NW,321,3.5,3.5,46,0.00,CLR,,0.00,WeatherDisplay:10.37,2013-04-21 17:27:00,
2013-04-21 13:32:00,60.7,39.8,30.44,NW,326,3.5,3.5,46,0.00,CLR,,0.00,WeatherDisplay:10.37,2013-04-21 17:32:00,
2013-04-21 13:37:00,60.8,41.5,30.44,ESE,117,2.3,2.3,49,0.00,CLR,,0.00,WeatherDisplay:10.37,2013-04-21 17:37:00,
2013-04-21 13:42:00,61.7,41.3,30.44,ENE,64,3.5,3.5,47,0.00,CLR,,0.00,WeatherDisplay:10.37,2013-04-21 17:42:00,
2013-04-21 13:47:00,61.8,41.3,30.44,ESE,120,6.9,6.9,47,0.00,CLR,,0.00,WeatherDisplay:10.37,2013-04-21 17:47:00,
2013-04-21 13:52:00,61.3,40.3,30.44,NNE,33,3.5,3.5,46,0.00,CLR,,0.00,WeatherDisplay:10.37,2013-04-21 17:52:00,
2013-04-21 13:57:00,60.5,40.2,30.44,ENE,60,3.5,3.5,47,0.00,CLR,,0.00,WeatherDisplay:10.37,2013-04-21 17:57:00,
2013-04-21 14:02:00,60.1,40.3,30.44,NNE,20,3.0,3.0,48,0.00,CLR,,0.00,WeatherDisplay:10.37,2013-04-21 18:02:00,
2013-04-21 14:07:00,59.4,40.2,30.44,SSW,193,3.5,3.5,49,0.00,CLR,,0.00,WeatherDisplay:10.37,2013-04-21 18:07:00,
2013-04-21 14:12:00,60.5,40.2,30.43,North,6,5.8,5.8,47,0.00,CLR,,0.00,WeatherDisplay:10.37,2013-04-21 18:12:00,
2013-04-21 14:17:00,61.0,42.2,30.43,NE,37,3.5,3.5,50,0.00,CLR,,0.00,WeatherDisplay:10.37,2013-04-21 18:17:00,
2013-04-21 14:22:00,61.6,41.7,30.43,NNE,20,3.5,3.5,48,0.00,CLR,,0.00,WeatherDisplay:10.37,2013-04-21 18:22:00,
2013-04-21 14:27:00,61.6,41.2,30.43,ESE,118,9.2,9.2,47,0.00,CLR,,0.00,WeatherDisplay:10.37,2013-04-21 18:27:00,
2013-04-21 14:32:00,62.1,41.1,30.43,East,79,1.1,1.1,46,0.00,CLR,,0.00,WeatherDisplay:10.37,2013-04-21 18:32:00,
2013-04-21 14:37:00,61.7,40.7,30.43,East,91,3.5,3.5,46,0.00,CLR,,0.00,WeatherDisplay:10.37,2013-04-21 18:37:00,
2013-04-21 14:42:00,62.0,41.0,30.43,NE,49,6.9,6.9,46,0.00,CLR,,0.00,WeatherDisplay:10.37,2013-04-21 18:42:00,
2013-04-21 14:47:00,62.2,43.3,30.43,ENE,65,3.5,3.5,50,0.00,CLR,,0.00,WeatherDisplay:10.37,2013-04-21 18:47:00,
2013-04-21 14:52:00,62.0,40.4,30.43,East,99,4.6,4.6,45,0.00,CLR,,0.00,WeatherDisplay:10.37,2013-04-21 18:52:00,
2013-04-21 14:57:00,60.8,40.4,30.43,NNE,16,2.3,2.3,47,0.00,CLR,,0.00,WeatherDisplay:10.37,2013-04-21 18:57:00,
2013-04-21 15:02:00,61.1,40.7,30.43,ESE,116,3.5,3.5,47,0.00,CLR,,0.00,WeatherDisplay:10.37,2013-04-21 19:02:00,
2013-04-21 15:07:00,61.9,42.5,30.42,East,89,5.0,5.0,49,0.00,CLR,,0.00,WeatherDisplay:10.37,2013-04-21 19:07:00,
2013-04-21 15:12:00,61.4,41.5,30.42,ENE,65,4.6,4.6,48,0.00,CLR,,0.00,WeatherDisplay:10.37,2013-04-21 19:12:00,
2013-04-21 15:17:00,60.8,41.5,30.42,ENE,67,1.1,1.1,49,0.00,CLR,,0.00,WeatherDisplay:10.37,2013-04-21 19:17:00,
2013-04-21 15:22:00,61.1,41.2,30.42,NNE,13,2.3,2.3,48,0.00,CLR,,0.00,WeatherDisplay:10.37,2013-04-21 19:22:00,
2013-04-21 15:26:00,61.4,41.5,30.42,SE,131,3.5,3.5,48,0.00,CLR,,0.00,WeatherDisplay:10.37,2013-04-21 19:26:00,
2013-04-21 15:31:00,62.2,42.3,30.42,ESE,117,2.3,2.3,48,0.00,CLR,,0.00,WeatherDisplay:10.37,2013-04-21 19:31:00,
2013-04-21 15:36:00,61.8,41.3,30.42,NNE,26,1.1,1.1,47,0.00,CLR,,0.00,WeatherDisplay:10.37,2013-04-21 19:36:00,
2013-04-21 15:41:00,60.8,41.0,30.42,NNE,14,3.5,3.5,48,0.00,CLR,,0.00,WeatherDisplay:10.37,2013-04-21 19:41:00,
2013-04-21 15:46:00,60.0,40.2,30.42,NNE,16,2.3,2.3,48,0.00,CLR,,0.00,WeatherDisplay:10.37,2013-04-21 19:46:00,
2013-04-21 15:51:00,61.0,43.2,30.41,East,98,4.0,4.0,52,0.00,CLR,,0.00,WeatherDisplay:10.37,2013-04-21 19:51:00,
2013-04-21 15:56:00,62.3,42.9,30.41,SSW,197,4.6,4.6,49,0.00,CLR,,0.00,WeatherDisplay:10.37,2013-04-21 19:56:00,
2013-04-21 16:01:00,61.9,40.9,30.41,NNE,22,2.3,2.3,46,0.00,CLR,,0.00,WeatherDisplay:10.37,2013-04-21 20:01:00,
2013-04-21 16:06:00,61.1,40.7,30.41,NNW,347,1.1,1.1,47,0.00,CLR,,0.00,WeatherDisplay:10.37,2013-04-21 20:06:00,
2013-04-21 16:11:00,60.8,41.0,30.41,ESE,120,3.5,3.5,48,0.00,CLR,,0.00,WeatherDisplay:10.37,2013-04-21 20:11:00,
2013-04-21 16:16:00,61.1,40.7,30.41,WSW,238,1.1,1.1,47,0.00,CLR,,0.00,WeatherDisplay:10.37,2013-04-21 20:16:00,
2013-04-21 16:21:00,61.4,40.4,30.41,NNE,18,10.4,10.4,46,0.00,CLR,,0.00,WeatherDisplay:10.37,2013-04-21 20:21:00,
2013-04-21 16:26:00,61.0,41.2,30.41,NNE,20,2.3,2.3,48,0.00,CLR,,0.00,WeatherDisplay:10.37,2013-04-21 20:26:00,
2013-04-21 16:31:00,61.6,41.2,30.40,NNE,29,3.0,3.0,47,0.00,CLR,,0.00,WeatherDisplay:10.37,2013-04-21 20:31:00,
2013-04-21 16:36:00,61.3,40.3,30.40,North,4,3.5,3.5,46,0.00,CLR,,0.00,WeatherDisplay:10.37,2013-04-21 20:36:00,
2013-04-21 16:41:00,60.2,39.9,30.40,ESE,108,2.3,2.3,47,0.00,CLR,,0.00,WeatherDisplay:10.37,2013-04-21 20:41:00,
2013-04-21 16:46:00,59.7,39.4,30.40,NNE,25,2.3,2.3,47,0.00,CLR,,0.00,WeatherDisplay:10.37,2013-04-21 20:46:00,
2013-04-21 16:51:00,60.7,40.9,30.40,ENE,77,3.5,3.5,48,0.00,CLR,,0.00,WeatherDisplay:10.37,2013-04-21 20:51:00,
2013-04-21 16:56:00,61.6,41.7,30.40,North,351,3.5,3.5,48,0.00,CLR,,0.00,WeatherDisplay:10.37,2013-04-21 20:56:00,
2013-04-21 17:01:00,61.1,40.1,30.40,North,356,2.3,2.3,46,0.00,CLR,,0.00,WeatherDisplay:10.37,2013-04-21 21:01:00,
2013-04-21 17:06:00,60.6,40.2,30.40,NNE,15,2.3,2.3,47,0.00,CLR,,0.00,WeatherDisplay:10.37,2013-04-21 21:06:00,
2013-04-21 17:11:00,60.3,40.0,30.40,ENE,77,2.0,2.0,47,0.00,CLR,,0.00,WeatherDisplay:10.37,2013-04-21 21:11:00,
2013-04-21 17:16:00,60.4,40.1,30.40,North,5,2.3,2.3,47,0.00,CLR,,0.00,WeatherDisplay:10.37,2013-04-21 21:16:00,
2013-04-21 17:21:00,61.0,40.6,30.40,East,80,3.5,3.5,47,0.00,CLR,,0.00,WeatherDisplay:10.37,2013-04-21 21:21:00,
2013-04-21 17:26:00,61.1,41.2,30.40,NE,37,1.1,1.1,48,0.00,CLR,,0.00,WeatherDisplay:10.37,2013-04-21 21:26:00,
2013-04-21 17:31:00,61.5,40.5,30.40,East,86,1.1,1.1,46,0.00,CLR,,0.00,WeatherDisplay:10.37,2013-04-21 21:31:00,
2013-04-21 17:36:00,60.9,40.5,30.40,NE,38,4.0,4.0,47,0.00,CLR,,0.00,WeatherDisplay:10.37,2013-04-21 21:36:00,
2013-04-21 17:41:00,60.1,39.8,30.40,NNW,338,3.5,3.5,47,0.00,CLR,,0.00,WeatherDisplay:10.37,2013-04-21 21:41:00,
2013-04-21 17:46:00,59.6,39.9,30.40,North,5,1.1,0.0,48,0.00,CLR,,0.00,WeatherDisplay:10.37,2013-04-21 21:46:00,
2013-04-21 17:51:00,59.9,39.6,30.40,ESE,105,1.1,1.1,47,0.00,CLR,,0.00,WeatherDisplay:10.37,2013-04-21 21:51:00,
2013-04-21 17:56:00,60.6,40.8,30.40,SE,133,8.1,8.1,48,0.00,CLR,,0.00,WeatherDisplay:10.37,2013-04-21 21:56:00,
2013-04-21 18:01:00,60.7,39.8,30.40,ENE,70,2.3,2.3,46,0.00,CLR,,0.00,WeatherDisplay:10.37,2013-04-21 22:01:00,
2013-04-21 18:06:00,60.2,40.4,30.40,East,79,2.3,2.3,48,0.00,CLR,,0.00,WeatherDisplay:10.37,2013-04-21 22:06:00,
2013-04-21 18:11:00,59.5,39.2,30.40,North,4,1.1,1.1,47,0.00,CLR,,0.00,WeatherDisplay:10.37,2013-04-21 22:11:00,
2013-04-21 18:16:00,58.8,39.7,30.40,ENE,60,2.3,0.0,49,0.00,CLR,,0.00,WeatherDisplay:10.37,2013-04-21 22:16:00,
2013-04-21 18:21:00,58.4,39.8,30.40,NE,47,2.3,2.3,50,0.00,CLR,,0.00,WeatherDisplay:10.37,2013-04-21 22:21:00,
2013-04-21 18:26:00,58.4,39.8,30.40,North,354,1.1,1.1,50,0.00,CLR,,0.00,WeatherDisplay:10.37,2013-04-21 22:26:00,
2013-04-21 18:31:00,58.8,39.1,30.40,SSW,204,4.6,4.6,48,0.00,CLR,,0.00,WeatherDisplay:10.37,2013-04-21 22:31:00,
2013-04-21 18:36:00,59.1,39.9,30.40,ENE,68,1.1,0.0,49,0.00,CLR,,0.00,WeatherDisplay:10.37,2013-04-21 22:36:00,
2013-04-21 18:41:00,59.2,39.5,30.40,North,350,2.3,2.3,48,0.00,CLR,,0.00,WeatherDisplay:10.37,2013-04-21 22:41:00,
2013-04-21 18:46:00,59.1,39.4,30.40,East,98,2.3,2.3,48,0.00,CLR,,0.00,WeatherDisplay:10.37,2013-04-21 22:46:00,
2013-04-21 18:51:00,58.8,39.7,30.40,ENE,74,1.1,0.0,49,0.00,CLR,,0.00,WeatherDisplay:10.37,2013-04-21 22:51:00,
2013-04-21 18:56:00,58.3,39.7,30.40,ESE,110,3.5,3.5,50,0.00,CLR,,0.00,WeatherDisplay:10.37,2013-04-21 22:56:00,
2013-04-21 19:01:00,57.8,40.3,30.40,NW,323,2.3,2.3,52,0.00,CLR,,0.00,WeatherDisplay:10.37,2013-04-21 23:01:00,
2013-04-21 19:06:00,57.4,39.4,30.40,ENE,67,1.1,0.0,51,0.00,CLR,,0.00,WeatherDisplay:10.37,2013-04-21 23:06:00,
2013-04-21 19:11:00,57.2,39.7,30.40,NE,36,1.1,0.0,52,0.00,CLR,,0.00,WeatherDisplay:10.37,2013-04-21 23:11:00,
2013-04-21 19:16:00,56.8,39.4,30.40,NNE,27,1.1,0.0,52,0.00,CLR,,0.00,WeatherDisplay:10.37,2013-04-21 23:16:00,
2013-04-21 19:21:00,56.6,39.7,30.40,NNE,21,1.1,0.0,53,0.00,CLR,,0.00,WeatherDisplay:10.37,2013-04-21 23:21:00,
2013-04-21 19:26:00,56.3,39.9,30.41,North,353,1.0,0.0,54,0.00,CLR,,0.00,WeatherDisplay:10.37,2013-04-21 23:26:00,
2013-04-21 19:31:00,56.0,39.6,30.41,NNE,33,1.1,0.0,54,0.00,CLR,,0.00,WeatherDisplay:10.37,2013-04-21 23:31:00,
2013-04-21 19:36:00,55.7,39.8,30.41,NNE,18,2.3,2.3,55,0.00,CLR,,0.00,WeatherDisplay:10.37,2013-04-21 23:36:00,
2013-04-21 19:41:00,55.4,39.0,30.41,NNE,27,1.1,1.1,54,0.00,CLR,,0.00,WeatherDisplay:10.37,2013-04-21 23:41:00,
2013-04-21 19:46:00,55.1,39.2,30.41,SE,129,1.1,1.1,55,0.00,CLR,,0.00,WeatherDisplay:10.37,2013-04-21 23:46:00,
2013-04-21 19:51:00,54.9,39.9,30.41,SSW,197,1.1,1.1,57,0.00,CLR,,0.00,WeatherDisplay:10.37,2013-04-21 23:51:00,
2013-04-21 19:56:00,54.6,39.2,30.41,SSW,200,0.0,0.0,56,0.00,CLR,,0.00,WeatherDisplay:10.37,2013-04-21 23:56:00,
2013-04-21 20:01:00,54.3,39.8,30.41,SSW,200,0.0,0.0,58,0.00,CLR,,0.00,WeatherDisplay:10.37,2013-04-22 00:01:00,
2013-04-21 20:06:00,54.0,40.0,30.42,NE,41,0.0,0.0,59,0.00,CLR,,0.00,WeatherDisplay:10.37,2013-04-22 00:06:00,
2013-04-21 20:11:00,53.6,39.6,30.42,NE,39,0.0,0.0,59,0.00,CLR,,0.00,WeatherDisplay:10.37,2013-04-22 00:11:00,
2013-04-21 20:16:00,53.3,39.8,30.42,NE,38,0.0,0.0,60,0.00,CLR,,0.00,WeatherDisplay:10.37,2013-04-22 00:16:00,
2013-04-21 20:21:00,53.0,39.9,30.42,NE,38,0.0,0.0,61,0.00,CLR,,0.00,WeatherDisplay:10.37,2013-04-22 00:21:00,
2013-04-21 20:26:00,52.7,40.0,30.42,NE,39,0.0,0.0,62,0.00,CLR,,0.00,WeatherDisplay:10.37,2013-04-22 00:26:00,
2013-04-21 20:31:00,52.3,40.1,30.42,NE,39,0.0,0.0,63,0.00,CLR,,0.00,WeatherDisplay:10.37,2013-04-22 00:31:00,
2013-04-21 20:36:00,51.8,40.0,30.43,NE,43,0.0,0.0,64,0.00,CLR,,0.00,WeatherDisplay:10.37,2013-04-22 00:36:00,
2013-04-21 20:41:00,51.4,40.0,30.43,NE,43,0.0,0.0,65,0.00,CLR,,0.00,WeatherDisplay:10.37,2013-04-22 00:41:00,
2013-04-21 20:46:00,51.0,39.6,30.43,NE,44,0.0,0.0,65,0.00,CLR,,0.00,WeatherDisplay:10.37,2013-04-22 00:46:00,
2013-04-21 20:47:00,51.0,40.0,30.43,NE,44,0.0,0.0,66,0.00,CLR,,0.00,WeatherDisplay:10.37,2013-04-22 00:47:00,
2013-04-21 20:52:00,50.8,39.8,30.44,NE,44,0.0,0.0,66,0.00,CLR,,0.00,WeatherDisplay:10.37,2013-04-22 00:52:00,
2013-04-21 20:57:00,50.6,40.0,30.44,NE,44,0.0,0.0,67,0.00,CLR,,0.00,WeatherDisplay:10.37,2013-04-22 00:57:00,
2013-04-21 21:02:00,50.5,39.9,30.44,NE,44,0.0,0.0,67,0.00,CLR,,0.00,WeatherDisplay:10.37,2013-04-22 01:02:00,
2013-04-21 21:07:00,50.4,40.2,30.45,NE,44,0.0,0.0,68,0.00,CLR,,0.00,WeatherDisplay:10.37,2013-04-22 01:07:00,
2013-04-21 21:12:00,50.4,39.9,30.45,NE,44,0.0,0.0,67,0.00,CLR,,0.00,WeatherDisplay:10.37,2013-04-22 01:12:00,
2013-04-21 21:17:00,50.4,39.9,30.45,NE,44,0.0,0.0,67,0.00,CLR,,0.00,WeatherDisplay:10.37,2013-04-22 01:17:00,
2013-04-21 21:22:00,50.3,39.8,30.45,NE,44,0.0,0.0,67,0.00,CLR,,0.00,WeatherDisplay:10.37,2013-04-22 01:22:00,
2013-04-21 21:27:00,50.3,39.8,30.45,NNE,33,0.0,0.0,67,0.00,CLR,,0.00,WeatherDisplay:10.37,2013-04-22 01:27:00,
2013-04-21 21:32:00,50.3,39.8,30.45,NNE,33,0.0,0.0,67,0.00,CLR,,0.00,WeatherDisplay:10.37,2013-04-22 01:32:00,
2013-04-21 21:37:00,50.1,39.9,30.46,NE,56,0.0,0.0,68,0.00,CLR,,0.00,WeatherDisplay:10.37,2013-04-22 01:37:00,
2013-04-21 21:42:00,49.9,39.8,30.46,NE,37,1.1,0.0,68,0.00,CLR,,0.00,WeatherDisplay:10.37,2013-04-22 01:42:00,
2013-04-21 21:47:00,49.8,39.3,30.46,NNE,19,1.1,0.0,67,0.00,CLR,,0.00,WeatherDisplay:10.37,2013-04-22 01:47:00,
2013-04-21 21:52:00,49.9,39.4,30.46,ENE,75,1.1,1.1,67,0.00,CLR,,0.00,WeatherDisplay:10.37,2013-04-22 01:52:00,
2013-04-21 21:57:00,50.0,38.7,30.46,NNE,20,2.3,0.0,65,0.00,CLR,,0.00,WeatherDisplay:10.37,2013-04-22 01:57:00,
2013-04-21 22:02:00,50.1,38.8,30.46,East,88,2.3,2.3,65,0.00,CLR,,0.00,WeatherDisplay:10.37,2013-04-22 02:02:00,
2013-04-21 22:07:00,50.1,39.2,30.46,NE,47,0.0,0.0,66,0.00,CLR,,0.00,WeatherDisplay:10.37,2013-04-22 02:07:00,
2013-04-21 22:12:00,49.9,39.0,30.46,SSE,153,0.0,0.0,66,0.00,CLR,,0.00,WeatherDisplay:10.37,2013-04-22 02:12:00,
2013-04-21 22:17:00,49.6,38.7,30.46,SW,214,0.0,0.0,66,0.00,CLR,,0.00,WeatherDisplay:10.37,2013-04-22 02:17:00,
2013-04-21 22:22:00,49.5,38.6,30.46,East,94,0.0,0.0,66,0.00,CLR,,0.00,WeatherDisplay:10.37,2013-04-22 02:22:00,
2013-04-21 22:27:00,49.3,38.4,30.46,East,90,1.1,1.1,66,0.00,CLR,,0.00,WeatherDisplay:10.37,2013-04-22 02:27:00,
2013-04-21 22:32:00,49.1,38.2,30.46,ESE,115,0.0,0.1,66,0.00,CLR,,0.00,WeatherDisplay:10.37,2013-04-22 02:32:00,
2013-04-21 22:37:00,49.0,38.5,30.46,NNW,330,1.1,0.0,67,0.00,CLR,,0.00,WeatherDisplay:10.37,2013-04-22 02:37:00,
2013-04-21 22:42:00,48.8,38.3,30.46,ESE,104,1.1,0.0,67,0.00,CLR,,0.00,WeatherDisplay:10.37,2013-04-22 02:42:00,
2013-04-21 22:47:00,48.6,38.1,30.46,ESE,105,3.5,0.0,67,0.00,CLR,,0.00,WeatherDisplay:10.37,2013-04-22 02:47:00,
2013-04-21 22:52:00,48.5,38.4,30.45,East,88,0.0,0.0,68,0.00,CLR,,0.00,WeatherDisplay:10.37,2013-04-22 02:52:00,
2013-04-21 22:57:00,48.3,38.2,30.45,NNE,20,1.1,1.1,68,0.00,CLR,,0.00,WeatherDisplay:10.37,2013-04-22 02:57:00,
2013-04-21 23:02:00,48.1,38.0,30.45,NNE,27,1.1,0.0,68,0.00,CLR,,0.00,WeatherDisplay:10.37,2013-04-22 03:02:00,
2013-04-21 23:07:00,48.0,37.9,30.45,NE,51,1.1,1.1,68,0.00,CLR,,0.00,WeatherDisplay:10.37,2013-04-22 03:07:00,
2013-04-21 23:12:00,47.9,37.8,30.45,NW,321,2.3,0.0,68,0.00,CLR,,0.00,WeatherDisplay:10.37,2013-04-22 03:12:00,
2013-04-21 23:17:00,47.8,38.1,30.45,NNW,340,1.1,1.1,69,0.00,CLR,,0.00,WeatherDisplay:10.37,2013-04-22 03:17:00,
2013-04-21 23:22:00,47.7,38.0,30.45,ENE,67,3.5,3.5,69,0.00,CLR,,0.00,WeatherDisplay:10.37,2013-04-22 03:22:00,
2013-04-21 23:27:00,47.5,37.8,30.45,North,357,0.0,0.0,69,0.00,CLR,,0.00,WeatherDisplay:10.37,2013-04-22 03:27:00,
2013-04-21 23:32:00,47.4,37.7,30.45,East,87,1.1,1.1,69,0.00,CLR,,0.00,WeatherDisplay:10.37,2013-04-22 03:32:00,
2013-04-21 23:37:00,47.1,37.8,30.45,North,6,1.1,1.1,70,0.00,CLR,,0.00,WeatherDisplay:10.37,2013-04-22 03:37:00,
2013-04-21 23:42:00,46.9,37.6,30.45,ENE,57,0.0,0.0,70,0.00,CLR,,0.00,WeatherDisplay:10.37,2013-04-22 03:42:00,
2013-04-21 23:47:00,46.7,37.8,30.45,ENE,72,3.5,0.0,71,0.00,CLR,,0.00,WeatherDisplay:10.37,2013-04-22 03:47:00,
2013-04-21 23:52:00,46.5,37.6,30.45,NE,40,0.0,0.1,71,0.00,CLR,,0.00,WeatherDisplay:10.37,2013-04-22 03:52:00,
2013-04-21 23:57:00,46.3,37.4,30.45,East,86,2.0,2.0,71,0.00,CLR,,0.00,WeatherDisplay:10.37,2013-04-22 03:57:00,